Renat Abdullayev

Chief Scout - Inter
3 Dec 2028
Sunday
Process

Personality

Adaptability (4) Ambition (3) Controversy (20) Loyalty (19) Pressure (18) Professionalism (6) Sportsmanship (2) Temperament (5)

Profile

Coaching Style Democratic
License Continental A
Determination 3
Man Management 9
Motivating 9
Discipline 7
Job Satisfaction
100%
Fatigue
0%
Role Chief Scout
Wage 56.0K p/w
Contract 14.03.2029

Performance

Behaviour Good
Training Effectiveness
41%
Player Development
35%
Injury Prevention
15%
Tactical Implementation
45%

Recent Events

Attended a recruitment meeting now
Assessed a player now
Assessed a player now
Attended a recruitment meeting 7d ago
Assessed a player 7d ago
Assessed a player 7d ago
Assessed a player 7d ago
Assessed a player 7d ago

Currently Monitoring

153
Player Club Status Ability Confidence Watched Last Observed Latest Vote
Juan Pablo Rial San Telmo Active 109 / 109 40% 13 02.12.2028 -
Beka Kashia Tskhinvali Active 90 / 101 40% 3 02.12.2028 -
Santiago Beltrán River Plate Active 130 / 124 40% 1 02.12.2028 -
Andrea Sergio Mazza Giana Erminio Active 114 / 107 40% 14 01.12.2028 -
Filippo Manfrin Arzignano Active 122 / 114 40% 8 01.12.2028 -
Timofey Mitrov Shinnik Active 115 / 122 40% 3 01.12.2028 -
Nikita Korets Rubin Active 96 / 100 40% 5 30.11.2028 -
Agustín Albrini Independiente Rivadavia Active 98 / 108 40% 2 30.11.2028 -
Gerardo Díaz San Martín SJ Active 116 / 124 40% 3 29.11.2028 -
Alexandr Ryabinkin Textilschik Active 86 / 110 40% 8 26.11.2028 -
Mikheil Makatsaria Torpedo Kutaisi Active 111 / 119 40% 5 26.11.2028 -
Gabriele Baldi Guidonia Montecelio Active 127 / 126 40% 11 24.11.2028 -
Francesco Cereser Ospitaletto Active 101 / 104 40% 2 24.11.2028 -
George Evans Exeter City Active 111 / 119 40% 3 23.11.2028 -
Kevin Morgan Plaza Colonia Active 101 / 101 40% 6 21.11.2028 -
Dante Jadli Temperley Active 90 / 107 40% 2 21.11.2028 -
Felipe Igón Racing Club Active 99 / 118 40% 2 20.11.2028 -
Jeremías Florentín Talleres Active 120 / 104 40% 2 19.11.2028 -
Sergio Barlocco Trento Active 129 / 125 40% 9 18.11.2028 -
Joaquín Molina Rosario Central Active 110 / 110 40% 1 18.11.2028 -
Isa Aji US Bougouni Active 94 / 104 40% 1 17.11.2028 -
José Río Danubio Active 118 / 103 40% 1 15.11.2028 -
Danila Tretyak Molodechno Active 96 / 75 40% 5 13.11.2028 -
Santiago Garro Almirante Brown Active 99 / 105 40% 8 09.11.2028 -
Arseniy Skopets Naftan Active 73 / 72 40% 5 09.11.2028 -
Andrey Bondar' Spartak Tambov Active 84 / 80 40% 2 08.11.2028 -
Tobías Pantoja Central Norte Active 117 / 123 40% 7 07.11.2028 -
Stefano Condino All Boys Active 100 / 112 40% 4 06.11.2028 -
Valerio Boffelli Cavese Active 116 / 113 40% 12 01.11.2028 -
Jacob Knightbridge Legion Active 91 / 91 40% 2 01.11.2028 -
Gianluca Valdiviezo Colón Active 95 / 94 40% 1 31.10.2028 -
Michael Barragán Union Magdalena Active 91 / 113 40% 1 31.10.2028 -
Federico Gomes Gerth Unión de Santa Fe Active 108 / 117 40% 5 30.10.2028 -
Agustín Martínez Cádiz Active 112 / 118 40% 1 28.10.2028 -
Luca Sonzogni Mantova Active 125 / 125 40% 1 28.10.2028 -
Álvaro Banquero Independiente Active 110 / 134 40% 3 26.10.2028 -
Aljaž Strajnar Giugliano Active 111 / 132 40% 1 25.10.2028 -
Jan Eicher Slonim Active 100 / 96 40% 2 22.10.2028 -
Yeferson Cordova Llaneros Active 92 / 98 40% 5 22.10.2028 -
Nahuel González Alvarado Active 99 / 107 40% 9 21.10.2028 -
Juan Esteban Gallego Once Caldas Active 105 / 122 40% 1 21.10.2028 -
Thiago De Bellis Racing Club Active 110 / 136 40% 1 19.10.2028 -
Yegor Koshkin Pobeda Active 79 / 80 40% 7 18.10.2028 -
Sebastián Díaz Robles Boca Juniors Active 108 / 121 40% 6 13.10.2028 -
Lautaro Herrera Estudiantes Active 118 / 100 40% 5 13.10.2028 -
Robert Cook Accrington Stanley Active 123 / 129 40% 6 08.10.2028 -
Fernando Bravo Almería Active 121 / 115 40% 3 04.10.2028 -
Stephen McMullan Fleetwood Town Active 110 / 114 40% 6 03.10.2028 -
Andrey Tsitsilin Baltika Active 96 / 84 40% 1 29.09.2028 -
Luka Veličković Benfica Active 104 / 107 40% 1 28.09.2028 -
Thiago Nahuel Independiente Active 108 / 94 40% 1 28.09.2028 -
Lorenz Ferdinand Tondela Active 95 / 106 40% 2 25.09.2028 -
Dylan Martínez River Plate Active 109 / 110 40% 1 25.09.2028 -
Anthony Cletus Bendel Insurance Active 108 / 117 40% 4 23.09.2028 -
Ignacio Roldán Lanús Active 88 / 109 40% 1 22.09.2028 -
Fabricio Díaz San Lorenzo Active 107 / 114 40% 4 16.09.2028 -
Tomás Paredes Colón Active 111 / 122 40% 3 15.09.2028 -
Hudson Sands Chelsea Active 102 / 103 40% 1 15.09.2028 -
Xavier Dziekoński Slask Active 150 / 148 40% 4 13.09.2028 -
Santino Gianoli Bogota Active 85 / 105 40% 1 12.09.2028 -
Alejo Medina Agropecuario Argentino Active 114 / 119 40% 9 10.09.2028 -
Agustín Nogueira Barracas Central Active 98 / 92 40% 2 09.09.2028 -
Bark Abdramane AS PSI Active 104 / 92 40% 2 08.09.2028 -
Xəyal Fərzullayev Neftchi Active 98 / 108 40% 2 02.09.2028 -
Matías Caballero Patronato Active 105 / 115 40% 2 31.08.2028 -
Dyogo Alves Flamengo Active 118 / 136 40% 1 31.08.2028 -
Lautaro Espeche Instituto Active 97 / 123 40% 2 30.08.2028 -
Matías Vilalta Giana Erminio Active 93 / 103 40% 1 29.08.2028 -
Ramiro Buratti River Plate Active 104 / 120 40% 2 28.08.2028 -
Gustavo Calderari Colegiales Active 105 / 129 40% 2 24.08.2028 -
Agustín Mangiaut Newell's Old Boys Active 131 / 106 40% 1 24.08.2028 -
George Murray-Jones Fleetwood Town Active 111 / 110 40% 1 18.08.2028 -
Thiago Parga Huracán Active 94 / 121 40% 1 18.08.2028 -
Máximo Núñez Los Andes Active 102 / 105 40% 5 12.08.2028 -
Antonio Carrera Falkenberg Active 122 / 101 40% 2 11.08.2028 -
Lucas Bersce Nueva Chicago Active 96 / 111 40% 1 09.08.2028 -
Remy Mitchell Plymouth Argyle Active 108 / 116 40% 2 31.07.2028 -
Mateo Albornoz Castellón Active 98 / 109 40% 5 22.07.2028 -
Səlahət Ağayev Gabala Lost 92 / 80 62% 1 17.07.2028 -
Santiago Torres San Lorenzo Active 115 / 101 40% 3 14.07.2028 -
Maxim Shichanin Zenit Active 109 / 102 40% 10 13.07.2028 -
Guilherme Pires Sporting CP Active 97 / 96 40% 5 12.07.2028 -
Tom Booth Oxford United Active 113 / 129 40% 2 08.07.2028 -
Rayan Al-Dossary Al-Jeel Active 84 / 71 40% 1 01.07.2028 -
Mikhail Gaidash Spartak Kostroma Active 112 / 94 40% 3 26.06.2028 -
Cristian Santander Barranquilla Active 131 / 124 40% 7 23.06.2028 -
Matthew Rowley Reading Active 105 / 103 40% 1 17.06.2028 -
Luca Martelli Forli Active 89 / 101 40% 4 08.06.2028 -
Matías Zorzoli Newell's Old Boys Active 103 / 120 40% 2 08.06.2028 -
Dylan Moody Cheltenham Town Rejected 114 / 125 40% 6 02.06.2028 -
Eros García Oviedo Active 99 / 99 40% 1 02.06.2028 -
Víctor Rojas Libertad Rejected 115 / 126 40% 1 21.05.2028 Needs More Info
Antonino Viola Catania Active 106 / 104 40% 3 20.04.2028 -
Roman Raifegerste Khimik Active 77 / 93 40% 2 16.04.2028 -
Kevin Soria Tigres Active 82 / 104 40% 1 15.04.2028 -
Jorge Luque Deportivo Riestra Active 112 / 107 40% 1 12.04.2028 -
Ángel Maciel Tacuarembo Active 115 / 101 40% 6 31.03.2028 -
Facundo Vila Estudiantes Active 95 / 93 40% 2 29.03.2028 -
Vladimir Pavlov Saturn Active 99 / 89 40% 3 20.03.2028 -
Woody Williamson Accrington Stanley Active 106 / 100 40% 1 27.02.2028 -
Damián Fernández Rosario Central Active 121 / 109 40% 1 06.02.2028 -
Matías Molina Independiente Active 93 / 110 40% 1 06.02.2028 -
Nikita Yanovich Tyumen Active 115 / 109 40% 7 03.02.2028 -
Íker Blanco Deportivo Cali Active 107 / 102 40% 1 31.01.2028 -
Zack Nelson Ternana Active 107 / 104 40% 1 21.01.2028 -
Marcelo Matzuda Chertanovo Active 84 / 71 40% 1 21.01.2028 -
Luis Segura Akron Active 91 / 101 40% 1 17.01.2028 -
Gonzalo Siri Argentinos Juniors Active 105 / 125 40% 1 13.01.2028 -
Denis M. Kovalevich Dinamo Brest Active 90 / 83 40% 1 13.01.2028 -
Alex Verón Vélez Active 128 / 123 40% 1 13.01.2028 -
Simón Herrera KDV Tomsk Active 72 / 96 40% 1 09.01.2028 -
Marco Miori Alvarado Active 116 / 114 40% 1 09.01.2028 -
Alfred Mazurich Lida Active 84 / 79 40% 1 08.01.2028 -
David Byazrov Alania Active 81 / 96 40% 3 04.01.2028 -
Fawaz Abdullahi Dinamo Minsk Active 99 / 118 40% 1 01.01.2028 -
Rza Cəfərov Neftchi Active 101 / 117 40% 1 30.12.2027 -
Arnau Rafús Cultural Leonesa Active 103 / 115 40% 2 29.12.2027 -
Ludovico Del Sorbo Sorrento Rejected 118 / 110 40% 2 25.12.2027 Needs More Info
Leon Borković Irkutsk Active 71 / 75 40% 2 25.12.2027 -
Facundo Ledesma Mitre Active 85 / 97 40% 2 19.12.2027 -
Tiziano Delias Sarmiento Active 88 / 106 40% 3 17.12.2027 -
Agustín Mieres Atlanta Active 86 / 94 40% 2 14.12.2027 -
Shea Connor Monopoli Active 98 / 113 40% 3 27.11.2027 -
Juan Pablo Insúa Barracas Central Active 88 / 95 40% 1 25.11.2027 -
Felipe Pontoni Talleres Active 95 / 92 40% 1 02.11.2027 -
Santiago Gutiérrez Puskas Akademia Active 84 / 99 40% 1 28.10.2027 -
Jed Ward Sheffield Wednesday Active 97 / 108 40% 1 13.10.2027 -
Dermot Mee Huesca Active 94 / 108 40% 1 09.10.2027 -
Sabino González Sarmiento Active 88 / 92 40% 1 04.10.2027 -
James Wright Oxford United Active 88 / 85 40% 1 15.09.2027 -
Lautaro Bursich Talleres Active 93 / 90 40% 2 13.09.2027 -
Valentín Catalán Argentinos Juniors Active 95 / 86 40% 1 11.09.2027 -
Martín D'Aurizio Huracán Active 85 / 104 40% 1 09.09.2027 -
Elías Villar Nacional Active 98 / 110 40% 1 09.09.2027 -
Jonathan Macaulay Metalist Active 89 / 83 40% 2 06.09.2027 -
Franco Capponi Aldosivi Active 91 / 117 40% 1 28.08.2027 -
Ignacio Coscio Huracán Active 100 / 107 40% 1 22.08.2027 -
Sebastián Alzate Once Caldas Active 85 / 111 40% 1 20.08.2027 -
Luke Campbell Bolton Wanderers Active 103 / 109 40% 1 09.08.2027 -
David Fernández Unión de Santa Fe Active 78 / 76 40% 1 03.08.2027 -
Ángel Espínola Sportivo Luqueno Active 93 / 114 40% 1 03.08.2027 -
Məqsəd İsayev Kapaz Active 87 / 96 58% 1 25.01.2027 -
Daniel Valdelamar Yenisey Active 106 / 94 40% 1 17.01.2027 -
Matheus Silva Qarabag Active 124 / 126 40% 1 16.01.2027 -
Richard Ismayilov AZAL Active 85 / 96 40% 1 16.01.2027 -
Temirkan Sundukov Dinamo Makhachkala Active 99 / 96 40% 2 14.01.2027 -
Denzel Jubitana Neftchi Active 121 / 118 40% 2 11.01.2027 -
Klismahn Neftchi Active 117 / 115 40% 1 10.01.2027 -
Bruno Silva Gabala Active 102 / 97 40% 1 08.01.2027 -
Mohammad Javad Hosseinnejad Dinamo Makhachkala Active 120 / 110 40% 1 07.01.2027 -
Ifeanyi Mathew Neftchi Active 116 / 113 40% 1 06.01.2027 -
Vladislav Sarveli Nizhniy Novgorod Active 109 / 99 40% 1 04.01.2027 -
David Kokoev Yenisey Active 117 / 98 40% 1 31.12.2026 -